createdAt,value
2023-09-08T00:00:36.872Z,91
2023-09-08T00:01:43.999Z,91
2023-09-08T00:02:51.195Z,91
2023-09-08T00:03:58.317Z,91
2023-09-08T00:05:05.339Z,91
2023-09-08T00:06:11.820Z,91
2023-09-08T00:07:19.033Z,91
2023-09-08T00:08:26.094Z,91
2023-09-08T00:09:33.144Z,91
2023-09-08T00:10:40.279Z,91
2023-09-08T00:11:46.867Z,91
2023-09-08T00:12:53.972Z,91
2023-09-08T00:14:01.067Z,91
2023-09-08T00:15:08.212Z,91
2023-09-08T00:16:14.812Z,91
2023-09-08T00:17:21.858Z,91
2023-09-08T00:18:29.029Z,90
2023-09-08T00:19:36.135Z,91
2023-09-08T00:20:43.305Z,91
2023-09-08T00:21:49.795Z,91
2023-09-08T00:22:56.923Z,91
2023-09-08T00:24:03.951Z,91
2023-09-08T00:25:11.058Z,91
2023-09-08T00:26:18.210Z,91
2023-09-08T00:27:24.835Z,91
2023-09-08T00:28:32.268Z,91
2023-09-08T00:29:39.202Z,91
2023-09-08T00:30:46.111Z,91
2023-09-08T00:31:53.184Z,91
2023-09-08T00:32:59.916Z,91
2023-09-08T00:35:14.028Z,91
2023-09-08T00:36:21.121Z,91
2023-09-08T00:37:28.229Z,91
2023-09-08T00:38:34.981Z,91
2023-09-08T00:39:41.975Z,91
2023-09-08T00:40:49.029Z,91
2023-09-08T00:41:56.120Z,91
2023-09-08T00:43:03.230Z,91
2023-09-08T00:44:09.892Z,91
2023-09-08T00:45:16.970Z,91
2023-09-08T00:46:24.142Z,91
2023-09-08T00:47:31.151Z,91
2023-09-08T00:48:38.449Z,91
2023-09-08T00:49:44.811Z,91
2023-09-08T00:50:51.923Z,91
2023-09-08T00:51:59.059Z,91
2023-09-08T00:53:06.158Z,91
2023-09-08T00:54:13.257Z,91
2023-09-08T00:55:19.828Z,91
2023-09-08T00:56:27.006Z,91
2023-09-08T00:57:34.019Z,92
2023-09-08T00:58:41.100Z,92
2023-09-08T00:59:48.265Z,91
2023-09-08T01:00:54.886Z,91
2023-09-08T01:03:09.133Z,91
2023-09-08T01:04:16.288Z,92
2023-09-08T01:05:23.241Z,91
2023-09-08T01:06:29.864Z,91
2023-09-08T01:07:37.020Z,91
2023-09-08T01:08:44.147Z,91
2023-09-08T01:09:51.297Z,91
2023-09-08T01:10:58.309Z,91
2023-09-08T01:12:04.951Z,91
2023-09-08T01:13:15.440Z,92
2023-09-08T01:14:19.072Z,92
2023-09-08T01:15:26.210Z,91
2023-09-08T01:16:33.297Z,91
2023-09-08T01:17:39.847Z,91
2023-09-08T01:18:47.072Z,92
2023-09-08T01:19:54.058Z,92
2023-09-08T01:21:01.369Z,92
2023-09-08T01:22:07.757Z,92
2023-09-08T01:23:15.441Z,92
2023-09-08T01:24:21.998Z,92
2023-09-08T01:25:29.100Z,92
2023-09-08T01:26:36.280Z,92
2023-09-08T01:27:42.716Z,92
2023-09-08T01:28:49.953Z,92
2023-09-08T01:29:56.929Z,92
2023-09-08T01:31:04.123Z,92
2023-09-08T01:32:11.228Z,92
2023-09-08T01:33:17.795Z,92
2023-09-08T01:34:24.939Z,92
2023-09-08T01:35:31.946Z,92
2023-09-08T01:36:39.080Z,92
2023-09-08T01:37:46.238Z,92
2023-09-08T01:38:52.808Z,92
2023-09-08T01:39:59.841Z,92
2023-09-08T01:41:06.982Z,92
2023-09-08T01:42:14.110Z,92
2023-09-08T01:43:21.190Z,92
2023-09-08T01:44:27.856Z,92
2023-09-08T01:45:34.967Z,92
2023-09-08T01:46:42.059Z,92
2023-09-08T01:47:49.166Z,92
2023-09-08T01:48:56.244Z,92
2023-09-08T01:50:02.845Z,92
2023-09-08T01:51:09.928Z,92
2023-09-08T01:52:17.087Z,92
2023-09-08T01:53:24.082Z,92
2023-09-08T01:54:31.233Z,92
2023-09-08T01:55:37.848Z,92
2023-09-08T01:56:44.955Z,92
2023-09-08T01:57:52.063Z,92
2023-09-08T01:58:59.149Z,93
2023-09-08T02:00:06.286Z,92
2023-09-08T02:01:12.834Z,92
2023-09-08T02:03:27.166Z,92
2023-09-08T02:04:34.153Z,92
2023-09-08T02:06:47.841Z,92
2023-09-08T02:07:54.997Z,92
2023-09-08T02:09:01.990Z,92
2023-09-08T02:10:09.151Z,92
2023-09-08T02:11:16.258Z,92
2023-09-08T02:12:22.822Z,92
2023-09-08T02:13:29.960Z,92
2023-09-08T02:14:37.083Z,92
2023-09-08T02:15:44.380Z,92
2023-09-08T02:16:50.815Z,92
2023-09-08T02:17:57.868Z,92
2023-09-08T02:19:05.019Z,92
2023-09-08T02:20:12.038Z,92
2023-09-08T02:21:19.193Z,92
2023-09-08T02:22:25.799Z,92
2023-09-08T02:23:32.855Z,92
2023-09-08T02:24:40.044Z,92
2023-09-08T02:25:47.082Z,92
2023-09-08T02:26:54.148Z,93
2023-09-08T02:28:00.755Z,93
2023-09-08T02:29:07.923Z,92
2023-09-08T02:30:14.986Z,93
2023-09-08T02:31:22.157Z,93
2023-09-08T02:32:29.253Z,93
2023-09-08T02:33:35.790Z,93
2023-09-08T02:34:42.851Z,93
2023-09-08T02:35:49.962Z,93
2023-09-08T02:36:57.071Z,93
2023-09-08T02:38:04.178Z,93
2023-09-08T02:39:11.326Z,93
2023-09-08T02:40:17.867Z,93
2023-09-08T02:41:24.964Z,93
2023-09-08T02:42:32.128Z,93
2023-09-08T02:43:39.226Z,93
2023-09-08T02:44:45.772Z,93
2023-09-08T02:45:52.964Z,93
2023-09-08T02:47:00.026Z,92
2023-09-08T02:48:07.137Z,92
2023-09-08T02:49:14.218Z,92
2023-09-08T02:50:20.763Z,92
2023-09-08T02:51:27.987Z,92
2023-09-08T02:52:35.007Z,92
2023-09-08T02:53:42.086Z,92
2023-09-08T02:54:49.222Z,92
2023-09-08T02:55:55.798Z,92
2023-09-08T02:57:02.880Z,92
2023-09-08T02:58:10.058Z,92
2023-09-08T02:59:17.098Z,92
2023-09-08T03:00:24.196Z,92
2023-09-08T03:01:30.868Z,92
2023-09-08T03:02:38.063Z,93
2023-09-08T03:03:45.073Z,92
2023-09-08T03:04:52.133Z,92
2023-09-08T03:05:59.220Z,93
2023-09-08T03:07:05.815Z,92
2023-09-08T03:08:12.917Z,93
2023-09-08T03:10:27.129Z,93
2023-09-08T03:11:34.256Z,93
2023-09-08T03:12:40.761Z,93
2023-09-08T03:13:47.949Z,93
2023-09-08T03:14:55.039Z,93
2023-09-08T03:16:02.116Z,93
2023-09-08T03:17:09.408Z,93
2023-09-08T03:18:17.129Z,93
2023-09-08T03:19:22.913Z,93
2023-09-08T03:20:29.989Z,93
2023-09-08T03:21:37.167Z,93
2023-09-08T03:22:43.737Z,93
2023-09-08T03:23:50.864Z,93
2023-09-08T03:24:57.949Z,93
2023-09-08T03:26:05.025Z,93
2023-09-08T03:27:12.163Z,93
2023-09-08T03:28:18.756Z,93
2023-09-08T03:29:25.844Z,93
2023-09-08T03:31:40.159Z,93
2023-09-08T03:32:47.294Z,93
2023-09-08T03:33:53.825Z,93
2023-09-08T03:35:00.810Z,93
2023-09-08T03:36:08.034Z,93
2023-09-08T03:37:15.087Z,93
2023-09-08T03:38:22.177Z,93
2023-09-08T03:39:28.740Z,93
2023-09-08T03:40:35.887Z,93
2023-09-08T03:41:42.899Z,93
2023-09-08T03:42:50.108Z,93
2023-09-08T03:43:57.189Z,93
2023-09-08T03:45:03.740Z,93
2023-09-08T03:46:10.940Z,93
2023-09-08T03:47:17.974Z,93
2023-09-08T03:48:25.067Z,93
2023-09-08T03:49:32.198Z,93
2023-09-08T03:50:38.795Z,93
2023-09-08T03:51:45.911Z,93
2023-09-08T03:52:52.978Z,93
2023-09-08T03:54:00.213Z,93
2023-09-08T03:55:07.260Z,93
2023-09-08T03:56:13.767Z,93
2023-09-08T03:57:20.859Z,93
2023-09-08T03:58:27.997Z,93
2023-09-08T03:59:35.074Z,93
2023-09-08T04:00:42.237Z,93
2023-09-08T04:01:48.782Z,93
2023-09-08T04:02:55.961Z,93
2023-09-08T04:04:03.029Z,93
2023-09-08T04:05:10.197Z,93
2023-09-08T04:06:17.180Z,93
2023-09-08T04:07:24.382Z,93
2023-09-08T04:08:30.915Z,93
2023-09-08T04:09:38.053Z,93
2023-09-08T04:10:56.959Z,93
2023-09-08T04:11:52.527Z,93
2023-09-08T04:14:05.862Z,93
2023-09-08T04:15:17.137Z,93
2023-09-08T04:16:20.151Z,93
2023-09-08T04:17:27.201Z,93
2023-09-08T04:18:33.889Z,94
2023-09-08T04:19:40.878Z,93
2023-09-08T04:20:48.126Z,93
2023-09-08T04:21:55.113Z,94
2023-09-08T04:23:02.180Z,94
2023-09-08T04:24:08.803Z,94
2023-09-08T04:25:16.026Z,94
2023-09-08T04:26:23.103Z,96
2023-09-08T04:27:30.156Z,94
2023-09-08T04:28:36.721Z,96
2023-09-08T04:29:43.793Z,94
2023-09-08T04:30:50.899Z,96
2023-09-08T04:31:58.126Z,94
2023-09-08T04:33:05.171Z,94
2023-09-08T04:34:11.690Z,96
2023-09-08T04:35:18.819Z,94
2023-09-08T04:36:26.023Z,96
2023-09-08T04:37:33.078Z,96
2023-09-08T04:38:40.130Z,96
2023-09-08T04:39:46.701Z,96
2023-09-08T04:40:53.788Z,96
2023-09-08T04:42:00.955Z,96
2023-09-08T04:43:08.110Z,96
2023-09-08T04:44:15.158Z,94
2023-09-08T04:45:21.741Z,94
2023-09-08T04:46:28.854Z,94
2023-09-08T04:47:35.992Z,94
2023-09-08T04:48:43.351Z,96
2023-09-08T04:49:50.210Z,96
2023-09-08T04:50:56.717Z,94
2023-09-08T04:52:03.961Z,94
2023-09-08T04:53:10.953Z,94
2023-09-08T04:54:18.121Z,94
2023-09-08T04:55:25.160Z,99
2023-09-08T04:56:31.759Z,96
2023-09-08T04:57:38.832Z,96
2023-09-08T04:59:53.149Z,94
2023-09-08T05:01:00.251Z,94
2023-09-08T05:02:06.695Z,94
2023-09-08T05:03:15.668Z,96
2023-09-08T05:04:20.959Z,94
2023-09-08T05:05:28.146Z,94
2023-09-08T05:06:35.179Z,94
2023-09-08T05:07:41.750Z,94
2023-09-08T05:08:48.991Z,93
2023-09-08T05:09:57.778Z,94
2023-09-08T05:11:03.133Z,94
2023-09-08T05:12:10.177Z,93
2023-09-08T05:13:30.339Z,93
2023-09-08T05:14:23.826Z,94
2023-09-08T05:15:32.252Z,93
2023-09-08T05:17:45.201Z,93
2023-09-08T05:18:51.782Z,93
2023-09-08T05:19:58.890Z,93
2023-09-08T05:21:05.963Z,93
2023-09-08T05:22:13.072Z,93
2023-09-08T05:23:19.712Z,93
2023-09-08T05:24:26.902Z,93
2023-09-08T05:25:33.872Z,93
2023-09-08T05:26:40.963Z,93
2023-09-08T05:27:48.085Z,93
2023-09-08T05:28:55.182Z,93
2023-09-08T05:30:01.757Z,93
2023-09-08T05:31:08.963Z,93
2023-09-08T05:32:16.038Z,93
2023-09-08T05:33:23.281Z,93
2023-09-08T05:34:30.402Z,94
2023-09-08T05:35:37.863Z,93
2023-09-08T05:36:43.942Z,93
2023-09-08T05:37:50.990Z,93
2023-09-08T05:38:58.107Z,93
2023-09-08T05:40:04.823Z,93
2023-09-08T05:41:11.796Z,93
2023-09-08T05:42:18.920Z,94
2023-09-08T05:43:26.057Z,93
2023-09-08T05:44:33.097Z,93
2023-09-08T05:45:39.722Z,93
2023-09-08T05:46:47.001Z,93
2023-09-08T05:47:53.956Z,93
2023-09-08T05:49:01.136Z,93
2023-09-08T05:50:08.139Z,93
2023-09-08T05:51:14.695Z,93
2023-09-08T05:52:21.822Z,94
2023-09-08T05:53:28.963Z,93
2023-09-08T05:54:36.029Z,93
2023-09-08T05:55:43.227Z,93
2023-09-08T05:56:49.726Z,93
2023-09-08T05:57:56.811Z,93
2023-09-08T05:59:03.930Z,94
2023-09-08T06:00:11.142Z,94
2023-09-08T06:01:19.078Z,94
2023-09-08T06:02:24.781Z,94
2023-09-08T06:03:31.961Z,94
2023-09-08T06:04:38.981Z,94
2023-09-08T06:05:46.079Z,94
2023-09-08T06:06:53.168Z,94
2023-09-08T06:08:07.208Z,94
2023-09-08T06:09:06.899Z,94
2023-09-08T06:10:13.938Z,99
2023-09-08T06:11:20.998Z,96
2023-09-08T06:12:28.178Z,96
2023-09-08T06:13:34.742Z,99
2023-09-08T06:14:43.918Z,99
2023-09-08T06:15:48.965Z,99
2023-09-08T06:16:56.066Z,99
2023-09-08T06:18:03.182Z,99
2023-09-08T06:19:09.768Z,99
2023-09-08T06:21:23.948Z,99
2023-09-08T06:22:31.041Z,99
2023-09-08T06:23:38.266Z,99
2023-09-08T06:24:44.758Z,99
2023-09-08T06:25:51.867Z,99
2023-09-08T06:26:59.004Z,99
2023-09-08T06:28:06.106Z,99
2023-09-08T06:29:13.181Z,99
2023-09-08T06:30:19.768Z,99
2023-09-08T06:31:26.922Z,99
2023-09-08T06:32:34.063Z,99
2023-09-08T06:33:41.227Z,99
2023-09-08T06:34:47.754Z,99
2023-09-08T06:35:54.926Z,99
2023-09-08T06:37:01.821Z,99
2023-09-08T06:38:09.137Z,99
2023-09-08T06:39:16.145Z,99
2023-09-08T06:40:22.657Z,99
2023-09-08T06:41:29.807Z,99
2023-09-08T06:42:36.939Z,99
2023-09-08T06:43:44.039Z,99
2023-09-08T06:44:51.074Z,99
2023-09-08T06:45:57.728Z,99
2023-09-08T06:47:04.789Z,99
2023-09-08T06:48:11.974Z,99
2023-09-08T06:49:19.011Z,99
2023-09-08T06:50:26.120Z,99
2023-09-08T06:51:32.685Z,99
2023-09-08T06:52:39.826Z,99
2023-09-08T06:53:46.913Z,99
2023-09-08T06:54:54.025Z,99
2023-09-08T06:56:01.098Z,99
2023-09-08T06:57:07.724Z,99
2023-09-08T06:58:14.779Z,99
2023-09-08T06:59:21.884Z,99
2023-09-08T07:00:29.019Z,99
2023-09-08T07:01:36.294Z,99
2023-09-08T07:02:42.861Z,99
2023-09-08T07:03:50.387Z,99
2023-09-08T07:04:57.113Z,99
2023-09-08T07:06:03.973Z,99
2023-09-08T07:07:11.135Z,99
2023-09-08T07:08:17.820Z,99
2023-09-08T07:09:24.784Z,99
2023-09-08T07:10:31.938Z,99
2023-09-08T07:11:39.051Z,99
2023-09-08T07:12:46.151Z,99
2023-09-08T07:13:52.674Z,99
2023-09-08T07:14:59.813Z,99
2023-09-08T07:16:07.101Z,99
2023-09-08T07:17:14.072Z,99
2023-09-08T07:18:21.200Z,99
2023-09-08T07:19:27.800Z,99
2023-09-08T07:20:34.875Z,99
2023-09-08T07:21:41.970Z,99
2023-09-08T07:22:49.089Z,99
2023-09-08T07:25:02.738Z,99
2023-09-08T07:26:09.866Z,99
2023-09-08T07:27:16.959Z,99
2023-09-08T07:28:24.374Z,99
2023-09-08T07:29:31.224Z,99
2023-09-08T07:30:37.782Z,99
2023-09-08T07:31:44.902Z,99
2023-09-08T07:32:52.057Z,99
2023-09-08T07:33:59.073Z,99
2023-09-08T07:35:06.157Z,99
2023-09-08T07:36:12.779Z,99
2023-09-08T07:37:19.886Z,99
2023-09-08T07:38:26.954Z,99
2023-09-08T07:39:34.049Z,99
2023-09-08T07:40:41.167Z,99
2023-09-08T07:41:47.790Z,99
2023-09-08T07:42:54.869Z,99
2023-09-08T07:44:02.049Z,99
2023-09-08T07:45:09.056Z,99
2023-09-08T07:46:15.786Z,99
2023-09-08T07:47:22.772Z,99
2023-09-08T07:48:29.945Z,100
2023-09-08T07:49:37.047Z,100
2023-09-08T07:50:44.077Z,100
2023-09-08T07:51:50.646Z,100
2023-09-08T07:52:57.760Z,100
2023-09-08T07:54:04.924Z,100
2023-09-08T07:55:11.965Z,99
2023-09-08T07:56:19.156Z,99
2023-09-08T07:57:25.654Z,99
2023-09-08T07:58:32.993Z,99
2023-09-08T07:59:39.943Z,99
2023-09-08T08:00:47.036Z,99
2023-09-08T08:01:54.175Z,99
2023-09-08T08:03:00.737Z,99
2023-09-08T08:04:07.881Z,98
2023-09-08T08:05:14.923Z,98
2023-09-08T08:06:21.996Z,97
2023-09-08T08:07:29.118Z,97
2023-09-08T08:08:35.995Z,96
2023-09-08T08:09:43.817Z,95
2023-09-08T08:10:49.897Z,94
2023-09-08T08:11:57.091Z,94
2023-09-08T08:13:04.095Z,93
2023-09-08T08:14:10.669Z,92
2023-09-08T08:15:17.824Z,92
2023-09-08T08:16:24.987Z,91
2023-09-08T08:17:32.136Z,91
2023-09-08T08:18:39.481Z,90
2023-09-08T08:20:52.872Z,89
2023-09-08T08:21:59.930Z,89
2023-09-08T08:23:07.060Z,88
2023-09-08T08:24:14.146Z,88
2023-09-08T08:25:20.685Z,87
2023-09-08T08:26:27.824Z,87
2023-09-08T08:28:42.045Z,86
2023-09-08T08:29:49.147Z,85
2023-09-08T08:30:55.843Z,85
2023-09-08T08:33:10.028Z,84
2023-09-08T08:34:17.037Z,84
2023-09-08T08:35:24.128Z,84
2023-09-08T08:36:30.773Z,83
2023-09-08T08:37:37.878Z,83
2023-09-08T08:38:44.935Z,82
2023-09-08T08:39:52.134Z,81
2023-09-08T08:40:58.648Z,81
2023-09-08T08:42:05.859Z,80
2023-09-08T08:43:15.484Z,80
2023-09-08T08:44:19.959Z,80
2023-09-08T08:45:27.034Z,80
2023-09-08T08:46:33.687Z,81
2023-09-08T08:47:40.938Z,81
2023-09-08T08:48:47.915Z,81
2023-09-08T08:49:54.962Z,81
2023-09-08T08:51:02.062Z,81
2023-09-08T08:52:08.703Z,81
2023-09-08T08:53:15.733Z,80
2023-09-08T08:54:22.882Z,80
2023-09-08T08:55:29.967Z,80
2023-09-08T08:56:37.094Z,79
2023-09-08T08:57:43.677Z,78
2023-09-08T08:58:50.732Z,78
2023-09-08T08:59:57.896Z,78
2023-09-08T09:01:05.036Z,78
2023-09-08T09:02:12.049Z,78
2023-09-08T09:03:18.840Z,78
2023-09-08T09:04:25.829Z,77
2023-09-08T09:05:32.897Z,77
2023-09-08T09:06:40.017Z,77
2023-09-08T09:07:47.088Z,77
2023-09-08T09:08:53.699Z,77
2023-09-08T09:10:00.757Z,77
2023-09-08T09:11:07.926Z,77
2023-09-08T09:12:14.989Z,77
2023-09-08T09:13:21.571Z,77
2023-09-08T09:14:28.786Z,77
2023-09-08T09:15:35.813Z,77
2023-09-08T09:16:42.872Z,77
2023-09-08T09:17:49.988Z,77
2023-09-08T09:18:57.169Z,77
2023-09-08T09:20:03.759Z,77
2023-09-08T09:21:10.798Z,77
2023-09-08T09:22:17.874Z,77
2023-09-08T09:23:25.012Z,77
2023-09-08T09:24:32.314Z,77
2023-09-08T09:25:38.903Z,77
2023-09-08T09:26:45.836Z,77
2023-09-08T09:27:52.910Z,77
2023-09-08T09:29:00.012Z,77
2023-09-08T09:30:07.107Z,77
2023-09-08T09:32:20.821Z,76
2023-09-08T09:33:27.920Z,76
2023-09-08T09:34:35.050Z,76
2023-09-08T09:35:41.594Z,76
2023-09-08T09:36:48.719Z,75
2023-09-08T09:37:55.883Z,75
2023-09-08T09:39:02.918Z,75
2023-09-08T09:40:10.046Z,75
2023-09-08T09:41:17.280Z,75
2023-09-08T09:42:23.704Z,75
2023-09-08T09:43:30.807Z,75
2023-09-08T09:44:37.901Z,74
2023-09-08T09:45:45.104Z,74
2023-09-08T09:46:51.594Z,73
2023-09-08T09:47:58.759Z,73
2023-09-08T09:49:07.792Z,72
2023-09-08T09:50:12.900Z,72
2023-09-08T09:51:20.020Z,72
2023-09-08T09:52:26.614Z,71
2023-09-08T09:53:33.750Z,71
2023-09-08T09:54:40.811Z,71
2023-09-08T09:55:47.954Z,71
2023-09-08T09:56:55.051Z,71
2023-09-08T09:58:01.586Z,71
2023-09-08T09:59:08.760Z,70
2023-09-08T10:01:23.021Z,70
2023-09-08T10:02:30.134Z,70
2023-09-08T10:03:36.740Z,69
2023-09-08T10:04:43.723Z,69
2023-09-08T10:05:50.937Z,69
2023-09-08T10:06:57.985Z,69
2023-09-08T10:08:04.524Z,68
2023-09-08T10:09:11.611Z,68
2023-09-08T10:10:18.790Z,68
2023-09-08T10:11:25.870Z,68
2023-09-08T10:12:33.222Z,68
2023-09-08T10:13:40.072Z,68
2023-09-08T10:14:46.646Z,68
2023-09-08T10:15:53.733Z,68
2023-09-08T10:17:00.855Z,68
2023-09-08T10:18:08.159Z,67
2023-09-08T10:19:14.532Z,68
2023-09-08T10:20:21.613Z,67
2023-09-08T10:21:28.784Z,67
2023-09-08T10:22:35.840Z,67
2023-09-08T10:23:42.948Z,66
2023-09-08T10:24:49.589Z,66
2023-09-08T10:25:56.683Z,66
2023-09-08T10:27:03.792Z,66
2023-09-08T10:28:10.824Z,66
2023-09-08T10:29:18.023Z,65
2023-09-08T10:30:24.536Z,65
2023-09-08T10:31:31.981Z,65
2023-09-08T10:32:38.790Z,65
2023-09-08T10:33:45.955Z,65
2023-09-08T10:35:59.654Z,65
2023-09-08T10:37:06.783Z,65
2023-09-08T10:38:13.808Z,65
2023-09-08T10:39:20.915Z,65
2023-09-08T10:40:28.022Z,65
2023-09-08T10:41:34.638Z,65
2023-09-08T10:42:41.669Z,64
2023-09-08T10:43:48.799Z,64
2023-09-08T10:44:55.935Z,64
2023-09-08T10:46:03.053Z,64
2023-09-08T10:47:09.613Z,64
2023-09-08T10:48:16.789Z,64
2023-09-08T10:49:23.759Z,64
2023-09-08T10:50:30.887Z,63
2023-09-08T10:51:38.090Z,63
2023-09-08T10:52:44.584Z,63
2023-09-08T10:53:51.699Z,63
2023-09-08T10:54:58.885Z,63
2023-09-08T10:56:17.366Z,63
2023-09-08T10:57:13.033Z,63
2023-09-08T10:58:19.598Z,63
2023-09-08T10:59:26.718Z,64
2023-09-08T11:00:33.809Z,63
2023-09-08T11:01:40.939Z,63
2023-09-08T11:02:48.193Z,63
2023-09-08T11:03:54.790Z,63
2023-09-08T11:05:01.704Z,63
2023-09-08T11:06:08.850Z,63
2023-09-08T11:07:15.993Z,63
2023-09-08T11:08:23.057Z,63
2023-09-08T11:09:29.600Z,63
2023-09-08T11:10:36.754Z,63
2023-09-08T11:11:43.934Z,63
2023-09-08T11:12:50.921Z,63
2023-09-08T11:13:59.166Z,63
2023-09-08T11:15:04.595Z,63
2023-09-08T11:16:11.721Z,63
2023-09-08T11:17:18.882Z,63
2023-09-08T11:18:26.048Z,63
2023-09-08T11:19:33.035Z,63
2023-09-08T11:20:39.823Z,63
2023-09-08T11:21:46.731Z,63
2023-09-08T11:22:53.845Z,63
2023-09-08T11:24:00.914Z,63
2023-09-08T11:25:08.047Z,63
2023-09-08T11:26:14.625Z,63
2023-09-08T11:27:21.756Z,63
2023-09-08T11:29:35.964Z,63
2023-09-08T11:30:42.661Z,63
2023-09-08T11:31:49.661Z,63
2023-09-08T11:32:56.822Z,63
2023-09-08T11:34:03.874Z,63
2023-09-08T11:35:11.019Z,63
2023-09-08T11:36:18.643Z,63
2023-09-08T11:37:24.647Z,63
2023-09-08T11:39:38.866Z,64
2023-09-08T11:40:46.001Z,64
2023-09-08T11:41:52.575Z,64
2023-09-08T11:42:59.699Z,64
2023-09-08T11:44:06.846Z,64
2023-09-08T11:45:13.880Z,64
2023-09-08T11:46:21.119Z,64
2023-09-08T11:47:27.628Z,64
2023-09-08T11:48:35.098Z,64
2023-09-08T11:49:41.764Z,64
2023-09-08T11:50:48.913Z,64
2023-09-08T11:51:56.074Z,64
2023-09-08T11:53:02.584Z,64
2023-09-08T11:54:09.688Z,64
2023-09-08T11:55:16.874Z,64
2023-09-08T11:56:23.870Z,64
2023-09-08T11:57:30.994Z,64
2023-09-08T11:58:37.933Z,64
2023-09-08T11:59:44.658Z,64
2023-09-08T12:00:51.769Z,64
2023-09-08T12:01:58.889Z,64
2023-09-08T12:03:06.043Z,64
2023-09-08T12:04:12.674Z,64
2023-09-08T12:05:19.697Z,64
2023-09-08T12:06:26.945Z,64
2023-09-08T12:07:33.893Z,64
2023-09-08T12:08:41.001Z,64
2023-09-08T12:09:47.633Z,64
2023-09-08T12:10:54.670Z,64
2023-09-08T12:12:01.805Z,64
2023-09-08T12:13:09.080Z,64
2023-09-08T12:14:16.028Z,64
2023-09-08T12:15:22.597Z,64
2023-09-08T12:16:29.790Z,64
2023-09-08T12:17:36.884Z,64
2023-09-08T12:18:43.991Z,64
2023-09-08T12:19:51.080Z,65
2023-09-08T12:20:57.627Z,65
2023-09-08T12:22:04.761Z,65
2023-09-08T12:23:11.815Z,65
2023-09-08T12:24:18.965Z,65
2023-09-08T12:25:26.055Z,65
2023-09-08T12:26:32.591Z,65
2023-09-08T12:27:39.752Z,65
2023-09-08T12:28:46.836Z,65
2023-09-08T12:29:53.928Z,65
2023-09-08T12:31:01.108Z,65
2023-09-08T12:32:07.629Z,65
2023-09-08T12:33:15.691Z,65
2023-09-08T12:34:21.845Z,64
2023-09-08T12:35:31.169Z,64
2023-09-08T12:36:35.588Z,65
2023-09-08T12:37:42.638Z,65
2023-09-08T12:38:49.747Z,65
2023-09-08T12:39:56.897Z,65
2023-09-08T12:41:03.938Z,65
2023-09-08T12:43:25.515Z,65
2023-09-08T12:44:24.789Z,66
2023-09-08T12:45:31.867Z,66
2023-09-08T12:46:39.065Z,66
2023-09-08T12:47:45.573Z,66
2023-09-08T12:48:52.628Z,66
2023-09-08T12:49:59.845Z,66
2023-09-08T12:51:06.850Z,66
2023-09-08T12:52:13.939Z,67
2023-09-08T12:53:20.580Z,67
2023-09-08T12:54:27.688Z,67
2023-09-08T12:55:34.781Z,67
2023-09-08T12:57:49.021Z,67
2023-09-08T12:58:55.556Z,67
2023-09-08T13:00:02.660Z,67
2023-09-08T13:01:09.783Z,67
2023-09-08T13:03:23.966Z,68
2023-09-08T13:04:30.555Z,68
2023-09-08T13:05:37.698Z,68
2023-09-08T13:06:44.818Z,68
2023-09-08T13:07:51.858Z,68
2023-09-08T13:08:59.000Z,67
2023-09-08T13:10:05.690Z,68
2023-09-08T13:11:12.667Z,68
2023-09-08T13:12:19.823Z,68
2023-09-08T13:13:26.916Z,68
2023-09-08T13:14:33.948Z,68
2023-09-08T13:15:40.648Z,68
2023-09-08T13:16:47.754Z,68
2023-09-08T13:17:54.801Z,68
2023-09-08T13:19:04.521Z,68
2023-09-08T13:20:09.169Z,68
2023-09-08T13:21:15.602Z,68
2023-09-08T13:22:22.715Z,68
2023-09-08T13:23:29.805Z,68
2023-09-08T13:24:36.908Z,67
2023-09-08T13:25:44.005Z,68
2023-09-08T13:26:50.566Z,67
2023-09-08T13:27:57.748Z,67
2023-09-08T13:29:04.804Z,67
2023-09-08T13:30:11.924Z,67
2023-09-08T13:31:18.611Z,67
2023-09-08T13:32:25.683Z,67
2023-09-08T13:33:32.687Z,67
2023-09-08T13:34:39.874Z,67
2023-09-08T13:35:46.936Z,67
2023-09-08T13:36:54.021Z,67
2023-09-08T13:38:00.580Z,67
2023-09-08T13:39:07.740Z,67
2023-09-08T13:40:15.164Z,67
2023-09-08T13:41:21.954Z,67
2023-09-08T13:42:28.539Z,67
2023-09-08T13:43:35.608Z,67
2023-09-08T13:44:42.765Z,67
2023-09-08T13:46:57.141Z,67
2023-09-08T13:48:03.599Z,67
2023-09-08T13:49:10.775Z,67
2023-09-08T13:50:18.220Z,68
2023-09-08T13:51:25.371Z,68
2023-09-08T13:52:32.783Z,68
2023-09-08T13:54:45.952Z,68
2023-09-08T13:55:53.027Z,68
2023-09-08T13:57:01.295Z,68
2023-09-08T13:59:14.125Z,68
2023-09-08T14:00:23.660Z,68
2023-09-08T14:01:28.111Z,68
2023-09-08T14:02:43.246Z,68
2023-09-08T14:04:02.490Z,68
2023-09-08T14:04:49.198Z,68
2023-09-08T14:05:56.308Z,68
2023-09-08T14:12:37.823Z,68
2023-09-08T14:13:44.981Z,68
2023-09-08T14:14:51.929Z,68
2023-09-08T14:16:00.118Z,68
2023-09-08T14:17:05.680Z,68
2023-09-08T14:18:12.854Z,68
2023-09-08T14:19:19.913Z,68
2023-09-08T14:20:27.031Z,68
2023-09-08T14:21:33.576Z,68
2023-09-08T14:22:40.794Z,68
2023-09-08T14:23:47.724Z,68
2023-09-08T14:26:01.440Z,68
2023-09-08T14:27:08.617Z,68
2023-09-08T14:28:15.662Z,68
2023-09-08T14:29:22.794Z,68
2023-09-08T14:30:29.872Z,68
2023-09-08T14:31:36.478Z,68
2023-09-08T14:32:43.667Z,69
2023-09-08T14:33:50.688Z,68
2023-09-08T14:34:57.838Z,69
2023-09-08T14:36:04.900Z,69
2023-09-08T14:37:11.996Z,69
2023-09-08T14:38:18.573Z,69
2023-09-08T14:39:25.703Z,69
2023-09-08T14:40:32.857Z,69
2023-09-08T14:41:39.922Z,69
2023-09-08T14:42:46.508Z,69
2023-09-08T14:43:53.600Z,69
2023-09-08T14:45:00.679Z,69
2023-09-08T14:46:07.829Z,69
2023-09-08T14:47:14.881Z,69
2023-09-08T14:48:21.556Z,69
2023-09-08T14:50:35.691Z,69
2023-09-08T14:51:42.805Z,69
2023-09-08T14:52:49.934Z,69
2023-09-08T14:53:56.552Z,69
2023-09-08T14:55:03.582Z,69
2023-09-08T14:56:10.684Z,69
2023-09-08T14:57:17.854Z,69
2023-09-08T14:58:24.899Z,69
2023-09-08T14:59:31.489Z,69
2023-09-08T15:00:38.881Z,69
2023-09-08T15:01:45.789Z,70
2023-09-08T15:02:52.825Z,70
2023-09-08T15:04:00.062Z,70
2023-09-08T15:05:06.498Z,70
2023-09-08T15:06:13.611Z,70
2023-09-08T15:07:20.805Z,70
2023-09-08T15:08:27.848Z,70
2023-09-08T15:09:34.937Z,70
2023-09-08T15:10:41.637Z,70
2023-09-08T15:11:48.608Z,70
2023-09-08T15:12:55.807Z,70
2023-09-08T15:14:02.860Z,70
2023-09-08T15:15:09.973Z,70
2023-09-08T15:16:16.561Z,70
2023-09-08T15:17:23.619Z,71
2023-09-08T15:18:30.752Z,71
2023-09-08T15:19:37.858Z,71
2023-09-08T15:20:44.983Z,71
2023-09-08T15:21:51.487Z,71
2023-09-08T15:22:58.663Z,71
2023-09-08T15:24:05.769Z,71
2023-09-08T15:25:12.848Z,71
2023-09-08T15:26:19.920Z,71
2023-09-08T15:27:26.572Z,71
2023-09-08T15:28:33.630Z,71
2023-09-08T15:29:40.757Z,71
2023-09-08T15:30:47.974Z,71
2023-09-08T15:31:54.940Z,71
2023-09-08T15:33:01.587Z,71
2023-09-08T15:34:08.671Z,71
2023-09-08T15:35:15.781Z,71
2023-09-08T15:36:22.882Z,71
2023-09-08T15:37:29.450Z,71
2023-09-08T15:38:36.583Z,71
2023-09-08T15:39:43.717Z,71
2023-09-08T15:40:50.775Z,71
2023-09-08T15:41:57.892Z,71
2023-09-08T15:43:04.470Z,71
2023-09-08T15:44:11.545Z,71
2023-09-08T15:45:18.653Z,71
2023-09-08T15:46:25.810Z,71
2023-09-08T15:47:32.907Z,71
2023-09-08T15:48:40.075Z,71
2023-09-08T15:49:46.625Z,71
2023-09-08T15:50:53.667Z,71
2023-09-08T15:52:13.372Z,71
2023-09-08T15:54:14.478Z,71
2023-09-08T15:55:21.571Z,71
2023-09-08T15:56:28.733Z,71
2023-09-08T15:57:35.835Z,71
2023-09-08T15:58:43.003Z,71
2023-09-08T15:59:49.510Z,71
2023-09-08T16:00:56.805Z,71
2023-09-08T16:02:03.762Z,71
2023-09-08T16:03:10.834Z,71
2023-09-08T16:04:17.991Z,71
2023-09-08T16:05:24.492Z,71
2023-09-08T16:06:31.636Z,71
2023-09-08T16:07:38.710Z,71
2023-09-08T16:08:45.819Z,72
2023-09-08T16:09:52.875Z,72
2023-09-08T16:10:59.488Z,72
2023-09-08T16:12:06.595Z,72
2023-09-08T16:13:15.789Z,71
2023-09-08T16:14:20.843Z,71
2023-09-08T16:15:27.909Z,71
2023-09-08T16:16:34.598Z,72
2023-09-08T16:17:41.660Z,72
2023-09-08T16:18:48.718Z,72
2023-09-08T16:19:55.862Z,71
2023-09-08T16:21:02.912Z,71
2023-09-08T16:22:09.520Z,71
2023-09-08T16:23:16.621Z,72
2023-09-08T16:24:23.727Z,72
2023-09-08T16:25:30.791Z,71
2023-09-08T16:26:38.020Z,71
2023-09-08T16:27:44.534Z,71
2023-09-08T16:28:51.610Z,72
2023-09-08T16:29:58.736Z,71
2023-09-08T16:31:05.927Z,72
2023-09-08T16:32:12.899Z,71